Time,TemperatureF,DewpointF,PressureIn,WindDirection,WindDirectionDegrees,WindSpeedMPH,WindSpeedGustMPH,Humidity,HourlyPrecipIn,Conditions,Clouds,dailyrainin,SoftwareType,DateUTC
2013-07-20 12:41:00,86.7,77.4,29.87,West,270,1.1,-999.0,74,-99.99,,,0.15,Acu-Link.com,2013-07-20 16:41:00,
2013-07-20 12:56:00,89.4,77.9,29.87,North,0,1.7,-999.0,69,-99.99,,,0.15,Acu-Link.com,2013-07-20 16:56:00,
2013-07-20 13:11:00,90.5,78.9,29.86,SSE,157,3.2,-999.0,69,-99.99,,,0.15,Acu-Link.com,2013-07-20 17:11:00,
2013-07-20 13:26:00,90.7,79.1,29.85,SSE,157,2.2,-999.0,69,-99.99,,,0.15,Acu-Link.com,2013-07-20 17:26:00,
2013-07-20 13:42:00,93.9,80.8,29.84,WSW,247,1.7,-999.0,66,-99.99,,,0.15,Acu-Link.com,2013-07-20 17:42:00,
2013-07-20 13:57:00,91.8,78.8,29.83,South,180,1.1,-999.0,66,-99.99,,,0.15,Acu-Link.com,2013-07-20 17:57:00,
2013-07-20 14:12:00,91.8,76.4,29.82,West,270,2.2,-999.0,61,-99.99,,,0.15,Acu-Link.com,2013-07-20 18:12:00,
2013-07-20 15:29:00,93.4,74.2,29.80,NNE,22,2.2,-999.0,54,-99.99,,,0.15,Acu-Link.com,2013-07-20 19:29:00,
2013-07-20 15:44:00,82.9,69.4,29.82,WNW,292,4.2,-999.0,64,-99.99,,,0.15,Acu-Link.com,2013-07-20 19:44:00,
2013-07-20 16:14:00,80.4,69.7,29.81,SE,135,4.2,-999.0,70,-99.99,,,0.15,Acu-Link.com,2013-07-20 20:14:00,
2013-07-20 16:29:00,83.7,71.1,29.81,NE,45,5.3,-999.0,66,-99.99,,,0.15,Acu-Link.com,2013-07-20 20:29:00,
2013-07-20 16:45:00,84.2,71.1,29.80,East,90,4.2,-999.0,65,-99.99,,,0.15,Acu-Link.com,2013-07-20 20:45:00,
2013-07-20 17:00:00,84.4,71.3,29.79,ESE,112,4.7,-999.0,65,-99.99,,,0.15,Acu-Link.com,2013-07-20 21:00:00,
2013-07-20 17:15:00,83.5,70.9,29.79,North,0,4.2,-999.0,66,-99.99,,,0.15,Acu-Link.com,2013-07-20 21:15:00,
2013-07-20 17:30:00,81.9,69.8,29.81,NE,45,4.2,-999.0,67,-99.99,,,0.15,Acu-Link.com,2013-07-20 21:30:00,
2013-07-20 18:01:00,80.2,69.1,29.82,West,270,2.7,-999.0,69,-99.99,,,0.15,Acu-Link.com,2013-07-20 22:01:00,
2013-07-20 18:31:00,77.7,68.7,29.81,West,270,4.7,-999.0,74,-99.99,,,0.15,Acu-Link.com,2013-07-20 22:31:00,
2013-07-20 18:46:00,77.0,69.2,29.81,West,270,3.2,-999.0,77,-99.99,,,0.15,Acu-Link.com,2013-07-20 22:46:00,
2013-07-20 19:01:00,76.3,70.0,29.81,West,270,1.1,-999.0,81,-99.99,,,0.16,Acu-Link.com,2013-07-20 23:01:00,
2013-07-20 19:17:00,77.0,71.1,29.81,West,270,1.1,-999.0,82,-99.99,,,0.17,Acu-Link.com,2013-07-20 23:17:00,
2013-07-20 19:32:00,76.1,70.2,29.82,WNW,292,1.1,-999.0,82,-99.99,,,0.18,Acu-Link.com,2013-07-20 23:32:00,
2013-07-20 20:03:00,75.2,71.1,29.83,SSE,157,0.0,-999.0,87,-99.99,,,0.18,Acu-Link.com,2013-07-21 00:03:00,
2013-07-20 20:18:00,75.4,71.6,29.83,ESE,112,0.0,-999.0,88,-99.99,,,0.19,Acu-Link.com,2013-07-21 00:18:00,
2013-07-20 20:33:00,75.6,71.8,29.83,NNE,22,1.7,-999.0,88,-99.99,,,0.19,Acu-Link.com,2013-07-21 00:33:00,
2013-07-20 20:49:00,75.2,71.4,29.84,ESE,112,0.0,-999.0,88,-99.99,,,0.19,Acu-Link.com,2013-07-21 00:49:00,
2013-07-20 21:04:00,75.2,71.7,29.85,ENE,67,2.2,-999.0,89,-99.99,,,0.19,Acu-Link.com,2013-07-21 01:04:00,
2013-07-20 21:19:00,75.2,71.7,29.85,SSE,157,1.7,-999.0,89,-99.99,,,0.19,Acu-Link.com,2013-07-21 01:19:00,
2013-07-20 21:35:00,75.9,72.7,29.84,NE,45,1.1,-999.0,90,-99.99,,,0.19,Acu-Link.com,2013-07-21 01:35:00,
2013-07-20 21:50:00,75.2,72.1,29.83,ESE,112,1.1,-999.0,90,-99.99,,,0.19,Acu-Link.com,2013-07-21 01:50:00,
2013-07-20 22:05:00,75.4,72.3,29.83,West,270,0.0,-999.0,90,-99.99,,,0.19,Acu-Link.com,2013-07-21 02:05:00,
2013-07-20 22:36:00,75.4,72.3,29.84,NW,315,0.0,-999.0,90,-99.99,,,0.19,Acu-Link.com,2013-07-21 02:36:00,
2013-07-20 22:51:00,75.6,72.5,29.85,SE,135,0.0,-999.0,90,-99.99,,,0.19,Acu-Link.com,2013-07-21 02:51:00,
2013-07-20 23:06:00,75.4,72.3,29.85,West,270,0.0,-999.0,90,-99.99,,,0.19,Acu-Link.com,2013-07-21 03:06:00,
2013-07-20 23:22:00,75.2,72.7,29.86,NNE,22,1.1,-999.0,92,-99.99,,,0.19,Acu-Link.com,2013-07-21 03:22:00,
2013-07-20 23:37:00,74.8,72.6,29.86,South,180,0.0,-999.0,93,-99.99,,,0.19,Acu-Link.com,2013-07-21 03:37:00,
2013-07-20 23:52:00,74.8,73.0,29.86,ESE,112,1.1,-999.0,94,-99.99,,,0.19,Acu-Link.com,2013-07-21 03:52:00,